Time;durP1;ratioP1;P1;durP2;ratioP2;P2;SDS_P1;SDS_P2;PMS_P1;PMS_P2;Temp;Humidity;BMP_temperature;BMP_pressure;BME280_temperature;BME280_humidity;BME280_pressure;Samples;Min_cycle;Max_cycle;Signal;HPM_P1;HPM_P2
2021/06/04 00:00:21;;;;;;;1.50;1.40;;;22.80;43.20;;;26.47;29.26;101833.72;5154630;27;20463;-52
2021/06/04 00:02:48;;;;;;;1.50;1.40;;;22.70;43.20;;;26.42;29.19;101824.16;5154253;27;20053;-54
2021/06/04 00:05:17;;;;;;;1.63;1.52;;;22.70;43.20;;;26.44;29.09;101832.94;5153803;27;20574;-54
2021/06/04 00:07:43;;;;;;;1.80;1.70;;;22.80;43.30;;;26.46;29.26;101829.28;5135356;27;20046;-52
2021/06/04 00:10:18;;;;;;;1.27;1.25;;;22.70;43.20;;;26.41;29.29;101827.81;5153973;27;20055;-52
2021/06/04 00:12:43;;;;;;;1.42;1.30;;;22.70;43.30;;;26.44;29.24;101832.94;5154455;27;20047;-56
2021/06/04 00:15:15;;;;;;;1.50;1.40;;;22.70;43.20;;;26.41;29.24;101832.28;5153978;27;20055;-52
2021/06/04 00:17:42;;;;;;;1.50;1.40;;;22.70;43.30;;;26.45;29.26;101841.84;5154464;27;20122;-52
2021/06/04 00:20:16;;;;;;;1.65;1.55;;;22.70;43.30;;;26.39;29.38;101832.41;5153985;27;20078;-54
2021/06/04 00:22:41;;;;;;;1.60;1.50;;;22.70;43.30;;;26.43;29.38;101835.75;5154197;27;20494;-52
2021/06/04 00:25:08;;;;;;;1.50;1.40;;;22.70;43.30;;;26.42;29.36;101829.50;5153989;27;20047;-53
2021/06/04 00:27:34;;;;;;;1.52;1.42;;;22.70;43.30;;;26.40;29.29;101834.13;5154146;27;20047;-55
2021/06/04 00:30:01;;;;;;;1.50;1.40;;;22.70;43.30;;;26.38;29.45;101830.69;5154153;27;20091;-53
2021/06/04 00:32:27;;;;;;;1.50;1.40;;;22.70;43.30;;;26.39;29.41;101832.41;5153677;27;20046;-55
2021/06/04 00:34:53;;;;;;;1.67;1.58;;;22.70;43.30;;;26.38;29.39;101829.81;5153826;27;20049;-51
2021/06/04 00:37:20;;;;;;;1.23;1.13;;;22.70;43.30;;;26.38;29.24;101830.69;5153756;27;20130;-52
2021/06/04 00:39:47;;;;;;;1.48;1.38;;;22.70;43.30;;;26.37;29.48;101833.50;5135625;27;20047;-51
2021/06/04 00:42:25;;;;;;;1.40;1.30;;;22.70;43.40;;;26.35;29.38;101833.59;5156618;27;20122;-56
2021/06/04 00:44:56;;;;;;;1.40;1.30;;;22.60;43.30;;;26.38;29.25;101838.75;5138734;27;20050;-51
2021/06/04 00:47:25;;;;;;;1.58;1.48;;;22.70;43.40;;;26.37;29.36;101828.97;5139182;27;20054;-53
2021/06/04 00:49:53;;;;;;;1.40;1.30;;;22.70;43.40;;;26.39;29.40;101836.91;5138802;27;20050;-50
2021/06/04 00:52:26;;;;;;;1.50;1.40;;;22.70;43.40;;;26.37;29.39;101833.50;5138661;27;20051;-55
2021/06/04 00:54:56;;;;;;;1.50;1.40;;;22.70;43.40;;;26.31;29.46;101821.38;5122053;27;20042;-51
2021/06/04 00:57:24;;;;;;;1.50;1.40;;;22.70;43.40;;;26.36;29.30;101823.72;5135685;27;20104;-52
2021/06/04 00:59:50;;;;;;;1.40;1.30;;;22.70;43.40;;;26.34;29.24;101821.13;5121691;27;20078;-52
2021/06/04 01:02:24;;;;;;;1.58;1.48;;;22.60;43.40;;;26.34;29.37;101822.97;5157134;27;20050;-50
2021/06/04 01:04:50;;;;;;;1.55;1.45;;;22.70;43.40;;;26.37;29.42;101820.94;5157243;27;20129;-53
2021/06/04 01:08:04;;;;;;;1.42;1.33;;;22.60;43.40;;;26.32;29.43;101814.19;5156904;27;20047;-55
2021/06/04 01:11:02;;;;;;;1.65;1.55;;;22.60;43.40;;;26.34;29.31;101831.88;5120605;27;20388;-51
2021/06/04 01:13:36;;;;;;;1.40;1.30;;;22.60;43.40;;;26.30;29.33;101816.13;5138416;27;20046;-53
2021/06/04 01:16:12;;;;;;;1.35;1.25;;;22.60;43.40;;;26.34;29.19;101822.97;5138365;27;20563;-51
2021/06/04 01:19:22;;;;;;;1.40;1.30;;;22.60;43.40;;;26.30;29.41;101824.16;5138244;27;20050;-50
2021/06/04 01:22:02;;;;;;;1.50;1.40;;;22.60;43.40;;;26.31;29.51;101825.88;5138080;27;20053;-54
2021/06/04 01:25:11;;;;;;;1.10;1.10;;;22.60;43.40;;;26.31;29.43;101821.38;5121778;27;20046;-52
2021/06/04 01:27:42;;;;;;;1.60;1.50;;;22.60;43.50;;;26.28;29.45;101812.66;5136203;27;20054;-56
2021/06/04 01:30:30;;;;;;;1.33;1.23;;;22.60;43.50;;;26.25;29.48;101814.59;5136050;27;20400;-54
2021/06/04 01:33:08;;;;;;;1.70;1.60;;;22.60;43.50;;;26.29;29.54;101812.56;5121085;27;20043;-54
2021/06/04 01:35:47;;;;;;;1.30;1.20;;;22.50;43.40;;;26.27;29.48;101810.97;5120717;27;20074;-53
2021/06/04 01:38:20;;;;;;;1.50;1.40;;;22.50;43.50;;;26.27;29.44;101811.81;5121028;27;20050;-54
2021/06/04 01:40:51;;;;;;;1.60;1.50;;;22.60;43.50;;;26.29;29.42;101814.41;5120613;27;20127;-51
2021/06/04 01:43:24;;;;;;;1.50;1.40;;;22.60;43.50;;;26.27;29.43;101813.66;5155891;27;20046;-53
2021/06/04 01:45:58;;;;;;;1.50;1.40;;;22.60;43.50;;;26.27;29.37;101810.97;5120344;27;20380;-55
2021/06/04 01:48:29;;;;;;;1.52;1.42;;;22.60;43.50;;;26.28;29.52;101807.31;5137230;27;20134;-50
2021/06/04 01:51:17;;;;;;;1.63;1.52;;;22.60;43.80;;;26.23;29.42;101805.81;5121035;27;20046;-51
2021/06/04 01:54:05;;;;;;;1.55;1.45;;;22.60;43.50;;;26.25;29.48;101803.88;5138489;27;20078;-56
2021/06/04 01:56:38;;;;;;;1.40;1.30;;;22.60;43.50;;;26.25;29.44;101805.72;5119106;27;20043;-52
2021/06/04 01:59:20;;;;;;;1.40;1.30;;;22.60;43.50;;;26.23;29.35;101805.81;5119851;27;20067;-49
2021/06/04 02:01:52;;;;;;;1.30;1.20;;;22.60;43.60;;;26.25;29.38;101801.19;5103671;27;20373;-55
2021/06/04 02:04:53;;;;;;;1.55;1.45;;;22.50;43.50;;;26.25;29.50;101800.34;5135776;27;20483;-50
2021/06/04 02:07:28;;;;;;;1.30;1.20;;;22.50;43.60;;;26.24;29.51;101799.50;5102077;27;20043;-48
2021/06/04 02:09:56;;;;;;;1.58;1.48;;;22.50;43.60;;;26.23;29.56;101796.94;5137177;27;20055;-54
2021/06/04 02:12:29;;;;;;;1.10;1.10;;;22.50;43.60;;;26.23;29.45;101805.81;5136858;27;20050;-50
2021/06/04 02:15:25;;;;;;;1.38;1.27;;;22.50;43.60;;;26.22;29.46;101797.88;5120332;27;20095;-53
2021/06/04 02:18:23;;;;;;;1.67;1.30;;;22.50;43.60;;;26.21;29.42;101798.84;5119811;27;20051;-55
2021/06/04 02:21:07;;;;;;;1.92;1.80;;;22.50;43.60;;;26.20;29.53;101789.94;5137228;27;20068;-52
2021/06/04 02:24:18;;;;;;;1.40;1.30;;;22.50;43.60;;;26.23;29.55;101789.72;5137373;27;20054;-54
2021/06/04 02:26:54;;;;;;;1.50;1.40;;;22.50;43.70;;;26.19;29.46;101787.38;5120102;27;20081;-52
2021/06/04 02:29:38;;;;;;;1.88;1.60;;;22.50;43.70;;;26.17;29.64;101794.66;5137021;27;20047;-54
2021/06/04 02:32:19;;;;;;;1.58;1.48;;;22.50;43.70;;;26.17;29.44;101787.47;5137000;27;20046;-51
2021/06/04 02:34:55;;;;;;;1.38;1.27;;;22.50;43.70;;;26.17;29.69;101790.16;5136388;27;20082;-52
2021/06/04 02:37:34;;;;;;;1.27;1.20;;;22.40;43.70;;;26.14;29.63;101790.34;5118603;27;20074;-51
2021/06/04 02:40:20;;;;;;;1.40;1.30;;;22.50;43.70;;;26.16;29.64;101788.47;5120050;27;20047;-47
2021/06/04 02:42:57;;;;;;;1.30;1.20;;;22.40;43.70;;;26.16;29.62;101790.25;5101208;27;20052;-50
2021/06/04 02:45:37;;;;;;;1.42;1.33;;;22.40;43.70;;;26.15;29.80;101780.53;5155800;27;20432;-51
2021/06/04 02:48:18;;;;;;;1.10;1.10;;;22.40;43.70;;;26.14;29.61;101786.84;5136381;27;20536;-51
2021/06/04 02:51:07;;;;;;;1.40;1.30;;;22.40;43.70;;;26.13;29.75;101785.09;5136659;27;20138;-54
2021/06/04 02:53:51;;;;;;;1.20;1.13;;;22.40;43.70;;;26.13;29.65;101779.75;5155534;27;20134;-51
2021/06/04 02:56:31;;;;;;;1.30;1.20;;;22.40;43.80;;;26.12;29.54;101784.25;5155124;27;20043;-53
2021/06/04 02:59:15;;;;;;;1.60;1.50;;;22.40;43.70;;;26.12;29.62;101786.09;5135339;27;20560;-48
2021/06/04 03:02:00;;;;;;;1.40;1.30;;;22.40;43.80;;;26.10;29.83;101794.22;5134664;27;20088;-53
2021/06/04 03:04:33;;;;;;;1.38;1.27;;;22.40;43.80;;;26.10;29.65;101785.34;5121692;27;20129;-51
2021/06/04 03:07:11;;;;;;;1.42;1.33;;;22.40;43.80;;;26.09;29.57;101780.94;5136298;27;20046;-47
2021/06/04 03:09:42;;;;;;;1.38;1.27;;;22.40;43.80;;;26.12;29.62;101786.09;5118526;27;20051;-49
2021/06/04 03:12:18;;;;;;;1.20;1.20;;;22.40;43.80;;;26.07;29.66;101784.56;5136614;27;20502;-50
2021/06/04 03:14:47;;;;;;;1.00;1.00;;;22.40;43.90;;;26.10;29.69;101785.34;5154971;27;20052;-53
2021/06/04 03:17:17;;;;;;;1.40;1.30;;;22.40;43.90;;;26.07;29.74;101779.22;5134402;27;20123;-50
2021/06/04 03:19:44;;;;;;;3.67;1.48;;;22.40;43.90;;;26.07;29.76;101775.69;5135794;27;20137;-51
2021/06/04 03:22:33;;;;;;;1.33;1.23;;;22.40;43.90;;;26.07;29.71;101786.41;5135633;27;20444;-48
2021/06/04 03:25:16;;;;;;;1.00;1.00;;;22.40;43.90;;;26.07;29.68;101789.09;5134477;27;20180;-50
2021/06/04 03:27:44;;;;;;;1.30;1.20;;;22.40;43.90;;;26.05;29.56;101781.16;5135160;27;20402;-47
2021/06/04 03:30:20;;;;;;;1.10;1.10;;;22.40;43.90;;;26.03;29.66;101782.22;5135239;27;21006;-50
2021/06/04 03:32:47;;;;;;;1.30;1.20;;;22.30;43.90;;;26.03;29.85;101785.75;5155004;27;20495;-52
2021/06/04 03:35:14;;;;;;;1.23;1.13;;;22.30;43.90;;;26.02;29.72;101789.38;5134840;27;20131;-47
2021/06/04 03:37:41;;;;;;;1.20;1.10;;;22.30;43.90;;;26.05;29.85;101794.53;5134430;27;20403;-50
2021/06/04 03:40:12;;;;;;;1.25;1.15;;;22.30;43.90;;;26.03;29.71;101798.31;5154406;27;20078;-51
2021/06/04 03:42:39;;;;;;;1.30;1.20;;;22.30;43.90;;;25.98;29.82;101789.72;5136064;27;20061;-52
2021/06/04 03:45:12;;;;;;;1.10;1.10;;;22.30;44.00;;;25.99;29.79;101805.69;5135715;27;20095;-51
2021/06/04 03:47:38;;;;;;;1.40;1.30;;;22.30;44.00;;;26.00;29.83;101796.69;5134178;27;20096;-54
2021/06/04 03:50:08;;;;;;;1.20;1.10;;;22.30;44.00;;;26.00;29.67;101798.53;5135133;27;20099;-54
2021/06/04 03:52:34;;;;;;;1.30;1.20;;;22.30;44.00;;;26.01;29.81;101811.81;5154112;27;20050;-50
2021/06/04 03:55:03;;;;;;;1.48;1.20;;;22.30;44.00;;;26.01;29.84;101805.56;5135698;27;20043;-53
2021/06/04 03:57:33;;;;;;;1.45;1.35;;;22.30;44.00;;;26.01;29.74;101819.84;5154602;27;20054;-52
2021/06/04 04:00:00;;;;;;;1.00;1.00;;;22.30;44.00;;;26.02;29.88;101818.03;5154322;27;20046;-54
2021/06/04 04:02:28;;;;;;;1.23;1.13;;;22.30;44.00;;;26.01;29.88;101816.28;5154193;27;20077;-52
2021/06/04 04:04:58;;;;;;;1.13;1.13;;;22.30;44.00;;;25.99;29.95;101819.06;5154518;27;20491;-54
2021/06/04 04:07:30;;;;;;;1.20;1.20;;;22.30;44.10;;;26.02;29.83;101808.16;5154499;27;20054;-54
2021/06/04 04:09:57;;;;;;;1.20;1.10;;;22.30;44.00;;;26.04;29.79;101802.69;5154090;27;20039;-51
2021/06/04 04:12:25;;;;;;;1.05;1.05;;;22.40;44.00;;;26.11;29.74;101805.81;5154379;27;20449;-53
2021/06/04 04:14:53;;;;;;;1.08;1.05;;;22.40;43.80;;;26.14;29.84;101795.72;5154893;27;20054;-49
2021/06/04 04:18:34;;;;;;;1.30;1.20;;;22.50;43.70;;;26.27;29.64;101803.78;5157644;27;20054;-52
2021/06/04 04:21:05;;;;;;;1.25;1.20;;;22.60;43.50;;;26.28;29.55;101794.78;5157748;27;20042;-52
2021/06/04 04:23:53;;;;;;;1.30;1.20;;;22.70;43.40;;;26.35;29.62;101804.09;5157965;27;20134;-53
2021/06/04 04:26:24;;;;;;;1.40;1.30;;;22.80;43.30;;;26.44;29.51;101803.44;5158270;27;20440;-52
2021/06/04 04:28:51;;;;;;;;;;;22.80;43.10;;;26.60;29.28;101799.69;5157948;27;20047;-53
2021/06/04 04:31:22;;;;;;;1.23;1.15;;;22.90;43.00;;;26.61;29.05;101802.25;5157430;27;19914;-55
2021/06/04 04:33:48;;;;;;;;;;;23.00;43.00;;;26.79;28.97;101802.78;5158284;27;20050;-53
2021/06/04 04:36:17;;;;;;;1.35;1.25;;;23.00;42.80;;;26.75;28.96;101805.81;5138751;27;19922;-55
2021/06/04 04:38:44;;;;;;;1.00;1.00;;;23.10;42.80;;;26.79;28.93;101812.66;5157443;27;20058;-53
2021/06/04 04:41:11;;;;;;;1.50;1.40;;;23.10;42.70;;;26.86;28.91;101819.28;5156856;27;20484;-54
2021/06/04 04:43:46;;;;;;;1.52;1.42;;;23.20;42.70;;;26.90;28.85;101810.06;5139487;27;20082;-50
2021/06/04 04:46:14;;;;;;;1.15;1.10;;;23.20;42.50;;;26.97;28.87;101818.53;5157835;27;20047;-52
2021/06/04 04:48:41;;;;;;;1.40;1.30;;;23.30;42.50;;;27.02;28.70;101804.78;5157734;27;20050;-53
2021/06/04 04:51:08;;;;;;;1.40;1.30;;;23.30;42.40;;;27.09;28.68;101806.88;5136950;27;20043;-50
2021/06/04 04:53:35;;;;;;;1.00;1.00;;;23.30;42.90;;;27.09;28.70;101814.94;5156951;27;20073;-52
2021/06/04 04:56:03;;;;;;;1.13;1.10;;;23.30;42.30;;;27.14;28.50;101803.88;5157011;27;20487;-54
2021/06/04 04:58:29;;;;;;;1.17;1.08;;;23.40;42.30;;;27.18;28.42;101799.97;5157015;27;20126;-48
2021/06/04 05:00:56;;;;;;;1.10;1.10;;;23.40;42.20;;;27.26;28.56;101812.84;5156978;27;20051;-50
2021/06/04 05:03:22;;;;;;;1.05;1.05;;;23.50;42.50;;;27.29;28.19;101813.50;5157480;27;20095;-50
2021/06/04 05:05:49;;;;;;;1.23;1.20;;;23.50;42.10;;;27.32;28.33;101807.06;5156988;27;20057;-53
2021/06/04 05:08:17;;;;;;;1.35;1.25;;;23.50;42.10;;;27.40;28.31;101815.41;5157340;27;20043;-53
2021/06/04 05:10:43;;;;;;;1.30;1.25;;;23.60;42.10;;;27.44;28.16;101813.34;5156978;27;20034;-49
2021/06/04 05:13:09;;;;;;;1.20;1.17;;;23.60;42.00;;;27.47;28.24;101813.13;5156646;27;20476;-47
2021/06/04 05:15:39;;;;;;;1.40;1.30;;;23.70;41.90;;;27.50;28.14;101810.19;5156784;27;20050;-53
2021/06/04 05:18:09;;;;;;;1.02;1.02;;;23.70;41.90;;;27.56;28.06;101814.25;5156583;27;20055;-50
2021/06/04 05:20:36;;;;;;;1.23;1.23;;;23.70;41.80;;;27.61;28.18;101812.06;5156603;27;20143;-50
2021/06/04 05:23:04;;;;;;;1.20;1.10;;;23.80;41.80;;;27.61;27.84;101810.22;5156944;27;20505;-49
2021/06/04 05:25:43;;;;;;;1.27;1.17;;;23.80;41.80;;;27.66;28.17;101817.94;5156310;27;20061;-49
2021/06/04 05:28:11;;;;;;;1.30;1.20;;;23.80;41.70;;;27.69;27.90;101815.03;5155808;27;20050;-52
2021/06/04 05:30:42;;;;;;;1.40;1.30;;;23.80;41.60;;;27.72;28.13;101821.03;5156359;27;20407;-51
2021/06/04 05:33:12;;;;;;;1.30;1.20;;;23.90;41.70;;;27.76;27.84;101815.41;5156425;27;20043;-50
2021/06/04 05:35:41;;;;;;;1.05;1.05;;;23.90;41.60;;;27.80;27.93;101816.88;5156511;27;20042;-50
2021/06/04 05:38:09;;;;;;;0.80;0.80;;;23.90;41.50;;;27.82;27.67;101813.13;5156412;27;20051;-49
2021/06/04 05:40:39;;;;;;;1.40;1.30;;;23.90;41.50;;;27.86;27.85;101821.81;5156360;27;20058;-51
2021/06/04 05:43:08;;;;;;;1.30;1.20;;;24.00;41.50;;;27.89;27.98;101813.50;5137968;27;20121;-53
2021/06/04 05:45:40;;;;;;;1.10;1.10;;;24.10;41.50;;;27.90;27.69;101809.84;5136443;27;20150;-49
2021/06/04 05:48:08;;;;;;;1.10;1.05;;;24.10;41.40;;;27.97;27.60;101816.50;5156683;27;20047;-52
2021/06/04 05:50:43;;;;;;;1.08;1.08;;;24.10;41.30;;;28.00;27.78;101816.25;5156278;27;20554;-50
2021/06/04 05:53:13;;;;;;;1.30;1.20;;;24.20;41.30;;;28.04;27.51;101817.72;5156725;27;20047;-52
2021/06/04 05:55:40;;;;;;;0.98;0.98;;;24.20;41.20;;;28.07;27.37;101808.59;5156514;27;20053;-54
2021/06/04 05:58:10;;;;;;;1.30;1.20;;;24.20;41.10;;;28.12;27.44;101813.56;5156158;27;20039;-48
2021/06/04 06:00:43;;;;;;;1.20;1.10;;;24.30;41.10;;;28.18;27.44;101824.72;5156267;27;20104;-53
2021/06/04 06:03:12;;;;;;;1.00;1.00;;;24.40;41.00;;;28.22;27.28;101817.28;5155804;27;20043;-51
2021/06/04 06:05:38;;;;;;;1.05;1.02;;;24.40;40.90;;;28.31;27.17;101821.94;5156040;27;20444;-54
2021/06/04 06:08:05;;;;;;;1.00;1.00;;;24.50;40.80;;;28.33;27.43;101813.75;5135514;27;20055;-47
2021/06/04 06:10:30;;;;;;;1.17;1.10;;;24.50;40.70;;;28.41;27.18;101828.28;5136751;27;20437;-53
2021/06/04 06:12:57;;;;;;;1.15;1.08;;;24.50;40.70;;;28.42;27.12;101821.94;5155767;27;20066;-48
2021/06/04 06:15:24;;;;;;;1.23;1.17;;;24.60;40.60;;;28.46;27.13;101823.41;5155971;27;20058;-47
2021/06/04 06:17:51;;;;;;;1.05;1.05;;;24.60;40.60;;;28.53;26.95;101829.16;5155728;27;20070;-53
2021/06/04 06:20:21;;;;;;;1.05;1.05;;;24.70;40.50;;;28.56;27.30;101825.41;5155991;27;20507;-48
2021/06/04 06:22:48;;;;;;;1.33;1.23;;;24.70;40.30;;;28.66;26.80;101829.06;5156045;27;20133;-48
2021/06/04 06:25:18;;;;;;;1.13;1.02;;;24.80;40.30;;;28.70;26.97;101840.44;5136512;27;20395;-50
2021/06/04 06:27:44;;;;;;;1.30;1.20;;;24.90;40.20;;;28.76;26.94;101834.56;5156216;27;20137;-54
2021/06/04 06:30:20;;;;;;;1.20;1.10;;;24.90;40.10;;;28.76;26.74;101840.81;5155458;27;20571;-50
2021/06/04 06:32:45;;;;;;;1.13;1.08;;;25.00;40.10;;;28.82;26.43;101843.00;5155749;27;20494;-50
2021/06/04 06:35:12;;;;;;;1.35;1.25;;;25.00;39.90;;;28.87;26.75;101841.78;5155791;27;20050;-49
2021/06/04 06:37:38;;;;;;;1.08;1.08;;;25.00;39.80;;;28.90;26.40;101836.16;5155072;27;20046;-50
2021/06/04 06:40:07;;;;;;;1.15;1.10;;;25.10;39.80;;;28.95;26.50;101833.94;5154572;27;20042;-50
2021/06/04 06:42:32;;;;;;;1.10;1.00;;;25.20;39.70;;;28.98;26.66;101839.06;5136792;27;20043;-52
2021/06/04 06:44:58;;;;;;;1.70;1.30;;;25.20;39.60;;;29.04;26.44;101835.03;5155303;27;20406;-52
2021/06/04 06:47:24;;;;;;;1.33;1.10;;;25.30;39.50;;;29.06;26.50;101841.16;5155241;27;20047;-50
2021/06/04 06:49:50;;;;;;;1.00;1.00;;;25.30;39.40;;;29.10;26.28;101832.72;5136417;27;20053;-49
2021/06/04 06:52:16;;;;;;;1.13;1.13;;;25.40;39.40;;;29.14;26.27;101834.16;5155253;27;20046;-52
2021/06/04 06:54:43;;;;;;;1.13;1.10;;;25.40;39.20;;;29.19;26.33;101844.59;5134503;27;20437;-52
2021/06/04 06:57:09;;;;;;;1.38;1.10;;;25.40;39.20;;;29.24;26.35;101839.69;5136490;27;20379;-50
2021/06/04 06:59:35;;;;;;;1.23;1.13;;;25.50;39.10;;;29.26;26.40;101837.72;5155242;27;20043;-53
2021/06/04 07:02:06;;;;;;;1.13;1.10;;;25.60;39.10;;;29.32;26.33;101841.72;5155500;27;20048;-55
2021/06/04 07:04:32;;;;;;;1.23;1.13;;;25.60;39.00;;;29.36;26.15;101845.88;5155444;27;20054;-50
2021/06/04 07:06:58;;;;;;;0.85;0.85;;;25.60;38.90;;;29.36;26.10;101845.88;5155060;27;20118;-49
2021/06/04 07:09:24;;;;;;;1.05;1.05;;;25.60;39.00;;;29.39;25.88;101845.63;5155299;27;20471;-52
2021/06/04 07:11:54;;;;;;;0.82;0.82;;;25.60;38.90;;;29.40;25.95;101849.19;5154860;27;20043;-52
2021/06/04 07:14:33;;;;;;;1.00;1.00;;;25.70;38.90;;;29.40;26.13;101844.63;5154951;27;20399;-55
2021/06/04 07:17:00;;;;;;;1.23;1.17;;;25.70;38.80;;;29.48;25.89;101857.47;5154880;27;20042;-52
2021/06/04 07:19:27;;;;;;;0.85;0.85;;;25.80;38.80;;;29.50;25.91;101850.13;5155018;27;20053;-54
2021/06/04 07:21:53;;;;;;;1.00;1.00;;;25.80;38.70;;;29.52;25.95;101851.72;5154797;27;20046;-50
2021/06/04 07:24:22;;;;;;;1.00;1.00;;;25.80;38.70;;;29.54;25.72;101855.13;5154844;27;20042;-54
2021/06/04 07:26:51;;;;;;;1.10;1.10;;;25.80;38.60;;;29.56;25.89;101850.47;5154687;27;20042;-55
2021/06/04 07:29:20;;;;;;;0.93;0.93;;;25.90;38.60;;;29.64;25.64;101851.69;5154697;27;20554;-53
2021/06/04 07:31:47;;;;;;;1.10;1.10;;;25.90;38.50;;;29.68;25.77;101843.19;5154618;27;20055;-51
2021/06/04 07:34:13;;;;;;;1.38;1.27;;;25.90;38.50;;;29.69;25.48;101846.75;5154834;27;20480;-55
2021/06/04 07:36:44;;;;;;;0.90;0.90;;;26.00;38.50;;;29.68;25.81;101847.72;5154509;27;20046;-53
2021/06/04 07:39:16;;;;;;;1.00;1.00;;;26.00;38.40;;;29.77;25.67;101851.47;5136094;27;20047;-52
2021/06/04 07:41:43;;;;;;;1.30;1.20;;;26.00;38.40;;;29.77;25.43;101851.47;5155005;27;20047;-53
2021/06/04 07:44:12;;;;;;;1.02;1.02;;;26.10;38.40;;;29.81;25.62;101852.97;5154490;27;20067;-49
2021/06/04 07:46:39;;;;;;;0.90;0.90;;;26.10;38.40;;;29.81;25.25;101847.59;5154175;27;20062;-53
2021/06/04 07:49:05;;;;;;;1.27;1.17;;;26.10;38.30;;;29.85;25.50;101849.03;5154135;27;20095;-50
2021/06/04 07:51:37;;;;;;;1.10;1.10;;;26.10;38.30;;;29.85;25.31;101852.56;5153984;27;20050;-51
2021/06/04 07:54:05;;;;;;;1.17;1.10;;;26.10;38.20;;;29.88;25.39;101851.47;5154367;27;20145;-50
2021/06/04 07:56:31;;;;;;;1.00;1.00;;;26.20;38.20;;;29.92;25.46;101847.50;5154105;27;20088;-52
2021/06/04 07:58:57;;;;;;;1.10;1.10;;;26.20;38.20;;;29.95;25.42;101859.91;5135545;27;20444;-52
2021/06/04 08:01:23;;;;;;;1.30;1.20;;;26.20;38.20;;;29.93;25.26;101860.03;5154179;27;20042;-52
2021/06/04 08:03:49;;;;;;;1.10;1.10;;;26.20;38.20;;;29.95;25.40;101851.81;5154033;27;20054;-51
2021/06/04 08:06:18;;;;;;;1.10;1.10;;;26.20;38.10;;;29.96;25.26;101864.31;5154340;27;20368;-53
2021/06/04 08:08:45;;;;;;;1.00;1.00;;;26.20;38.10;;;29.97;25.17;101858.78;5153851;27;20572;-52
2021/06/04 08:11:19;;;;;;;1.20;1.10;;;26.20;38.10;;;29.97;25.48;101855.22;5154350;27;20142;-53
2021/06/04 08:13:46;;;;;;;1.00;1.00;;;26.20;38.10;;;29.99;25.11;101864.91;5154133;27;20495;-54
2021/06/04 08:16:12;;;;;;;1.00;1.00;;;26.20;38.10;;;29.99;25.13;101861.31;5154323;27;20487;-53
2021/06/04 08:18:40;;;;;;;1.10;1.10;;;26.30;38.10;;;30.01;25.10;101868.31;5154056;27;20046;-53
2021/06/04 08:21:25;;;;;;;0.80;0.80;;;26.20;38.00;;;30.00;25.19;101863.06;5153971;27;20051;-54
2021/06/04 08:23:51;;;;;;;0.93;0.93;;;26.20;38.10;;;29.99;25.35;101859.50;5153851;27;20402;-54
2021/06/04 08:26:23;;;;;;;0.90;0.90;;;26.30;38.10;;;30.01;25.15;101862.06;5135952;27;20062;-53
2021/06/04 08:28:49;;;;;;;1.05;1.05;;;26.30;38.10;;;30.01;25.09;101859.38;5153776;27;20104;-54
2021/06/04 08:31:19;;;;;;;1.33;1.23;;;26.30;38.10;;;29.99;25.11;101848.72;5153817;27;20096;-55
2021/06/04 08:33:46;;;;;;;1.20;1.10;;;26.30;38.00;;;29.99;25.15;101858.63;5153678;27;20487;-53
2021/06/04 08:36:23;;;;;;;1.00;1.00;;;26.30;38.10;;;29.98;25.26;101855.09;5153647;27;20042;-55
2021/06/04 08:38:49;;;;;;;1.10;1.00;;;26.30;38.10;;;30.00;25.29;101852.25;5153378;27;20054;-53
2021/06/04 08:41:32;;;;;;;1.20;1.10;;;26.30;38.00;;;29.98;25.39;101852.38;5153608;27;20089;-49
2021/06/04 08:44:30;;;;;;;0.95;0.93;;;26.30;38.10;;;29.97;25.22;101845.31;5135395;27;20051;-53
2021/06/04 08:47:22;;;;;;;1.05;1.00;;;26.30;38.10;;;29.95;25.37;101851.81;5135185;27;20050;-51
2021/06/04 08:50:09;;;;;;;1.00;1.00;;;26.30;38.10;;;29.93;25.42;101851.94;5152589;27;20511;-54
2021/06/04 08:53:00;;;;;;;0.88;0.88;;;26.30;38.10;;;29.91;25.30;101845.81;5153827;27;20042;-52
2021/06/04 08:55:44;;;;;;;1.05;1.00;;;26.20;38.00;;;29.89;25.19;101850.50;5153401;27;20085;-53
2021/06/04 08:58:51;;;;;;;1.00;1.00;;;26.20;38.00;;;29.87;25.55;101842.53;5135215;27;20039;-54
2021/06/04 09:01:32;;;;;;;1.10;1.10;;;26.20;38.10;;;29.86;25.28;101837.28;5134887;27;20137;-52
2021/06/04 09:04:21;;;;;;;1.13;1.08;;;26.30;38.20;;;29.83;25.40;101832.97;5138393;27;20560;-55
2021/06/04 09:06:54;;;;;;;1.23;1.13;;;26.20;38.10;;;29.81;25.31;101834.13;5157000;27;20047;-52
2021/06/04 09:09:45;;;;;;;1.00;1.00;;;26.20;38.10;;;29.79;25.52;101836.94;5138205;27;20053;-55
2021/06/04 09:12:46;;;;;;;1.00;1.00;;;26.20;38.20;;;29.77;25.40;101838.00;5138998;27;20042;-52
2021/06/04 09:15:15;;;;;;;1.10;1.10;;;26.20;38.20;;;29.77;25.40;101841.63;5119059;27;20051;-53
2021/06/04 09:18:02;;;;;;;1.10;1.10;;;26.20;38.20;;;29.73;25.38;101834.72;5157159;27;20556;-54
2021/06/04 09:20:51;;;;;;;1.20;1.10;;;26.10;38.70;;;29.69;25.56;101830.59;5136099;27;20047;-53
2021/06/04 09:23:27;;;;;;;1.13;1.10;;;26.20;38.30;;;29.67;25.46;101822.63;5119509;27;20055;-49
2021/06/04 09:25:54;;;;;;;1.33;1.23;;;26.10;38.20;;;29.70;25.46;101834.97;5156931;27;20042;-55
2021/06/04 09:28:31;;;;;;;1.10;1.05;;;26.10;38.20;;;29.67;25.75;101836.09;5156899;27;20049;-49
2021/06/04 09:31:18;;;;;;;1.20;1.20;;;26.10;38.20;;;29.66;25.77;101831.69;5156838;27;20043;-52
2021/06/04 09:33:56;;;;;;;1.42;1.33;;;26.10;38.20;;;29.67;25.73;101836.09;5156529;27;20479;-52
2021/06/04 09:36:43;;;;;;;1.20;1.10;;;26.10;38.20;;;29.65;25.53;101834.50;5156415;27;20038;-52
2021/06/04 09:40:08;;;;;;;1.27;1.17;;;26.10;38.20;;;29.65;25.71;101826.44;5137017;27;20047;-52
2021/06/04 09:42:34;;;;;;;1.10;1.10;;;26.10;38.20;;;29.64;25.32;101830.97;5052822;28;20421;-52
2021/06/04 09:45:11;;;;;;;1.10;1.10;;;26.10;38.20;;;29.63;25.60;101837.34;5035767;28;20538;-50
2021/06/04 09:47:45;;;;;;;0.90;0.90;;;26.10;38.20;;;29.63;25.46;101837.34;5123704;27;20085;-49
2021/06/04 09:50:41;;;;;;;1.02;1.02;;;26.10;38.20;;;29.60;25.86;101832.19;5138223;27;20051;-49
2021/06/04 09:53:19;;;;;;;1.02;1.02;;;26.10;38.20;;;29.62;25.68;101834.75;5156195;27;20084;-54
2021/06/04 09:55:50;;;;;;;1.17;1.08;;;26.10;38.20;;;29.63;25.65;101837.34;5156143;27;20076;-55
2021/06/04 09:58:18;;;;;;;;;;;26.10;38.20;;;29.77;25.55;101838.00;5137811;27;20492;-50
2021/06/04 10:01:04;;;;;;;1.15;1.10;;;26.20;38.50;;;29.66;25.53;101834.38;5137037;27;20363;-50
2021/06/04 10:03:37;;;;;;;1.27;1.17;;;26.10;38.40;;;29.64;25.87;101836.34;5155936;27;20129;-52
2021/06/04 10:06:08;;;;;;;1.02;1.02;;;26.10;38.30;;;29.64;25.79;101843.59;5156116;27;20058;-54
2021/06/04 10:08:49;;;;;;;1.10;1.10;;;26.10;38.30;;;29.58;25.91;101836.88;5155856;27;20050;-52
2021/06/04 10:11:54;;;;;;;1.30;1.20;;;26.10;38.30;;;29.64;25.92;101849.84;5155964;27;20050;-55
2021/06/04 10:14:35;;;;;;;1.27;1.17;;;26.10;38.30;;;29.62;25.64;101842.84;5156210;27;20110;-53
2021/06/04 10:20:31;;;;;;;1.10;1.10;;;26.10;38.30;;;29.64;25.73;101832.81;5155806;27;20048;-53
2021/06/04 10:23:34;;;;;;;2.25;1.33;;;26.10;38.30;;;29.62;25.95;101832.06;5156323;27;20075;-53
2021/06/04 10:26:24;;;;;;;1.30;1.20;;;26.10;38.30;;;29.59;25.81;101824.22;5137298;27;20043;-49
2021/06/04 10:29:13;;;;;;;1.23;1.20;;;26.20;38.60;;;29.57;25.86;101821.69;5155467;27;20074;-52
2021/06/04 10:31:54;;;;;;;1.20;1.10;;;26.20;38.40;;;29.59;25.81;101827.81;5155841;27;20075;-51
2021/06/04 10:34:41;;;;;;;1.40;1.30;;;26.20;38.40;;;29.62;25.87;101829.38;5137319;27;20077;-48
2021/06/04 10:37:18;;;;;;;1.30;1.20;;;26.20;39.00;;;29.61;26.13;101833.06;5155809;27;20129;-53
2021/06/04 10:39:59;;;;;;;1.20;1.10;;;26.20;38.40;;;29.64;25.78;101835.50;5136005;27;20075;-54
2021/06/04 10:42:51;;;;;;;1.10;1.10;;;26.10;38.30;;;29.65;25.81;101829.13;5137034;27;20047;-55
2021/06/04 10:45:26;;;;;;;1.77;1.10;;;26.20;38.30;;;29.64;25.69;101830.13;5135955;27;20120;-50